Terminal Aerodrome Forecast
Issued by NWS

Home | Current Version | Previous Version | Text Only | Print | Product List | Glossary On
Versions: 1 2 3 4 5 6 7 8 9 10 11 12 13 14 15 16 17 18 19 20 21 22 23 24 25 26 27 28 29 30 31 32 33 34
000
FTUS43 KDLH 080813 AAA
TAFHIB
TAF AMD
KHIB 080813Z 0808/0906 32015G25KT 5SM -SN BLSN SCT020 OVC040
      TEMPO 0808/0812 3SM -SN BLSN BKN025
     FM082200 33018G28KT P6SM -SN OVC035
     FM090000 33018G22KT P6SM BKN050=

USA.gov is the U.S. government's official web portal to all federal, state and local government web resources and services.